sensor_id;sensor_type;location;lat;lon;timestamp;temperature;humidity
15656;DHT22;7928;43.614;1.456;2024-03-02T00:01:30;9.90;99.90
15656;DHT22;7928;43.614;1.456;2024-03-02T00:03:57;9.90;99.90
15656;DHT22;7928;43.614;1.456;2024-03-02T00:06:24;9.80;99.90
15656;DHT22;7928;43.614;1.456;2024-03-02T00:08:57;9.80;99.90
15656;DHT22;7928;43.614;1.456;2024-03-02T00:11:24;9.70;99.90
15656;DHT22;7928;43.614;1.456;2024-03-02T00:13:53;9.70;99.90
15656;DHT22;7928;43.614;1.456;2024-03-02T00:16:20;9.60;99.90
15656;DHT22;7928;43.614;1.456;2024-03-02T00:18:47;9.70;99.90
15656;DHT22;7928;43.614;1.456;2024-03-02T00:21:14;9.70;99.90
15656;DHT22;7928;43.614;1.456;2024-03-02T00:23:45;9.70;99.90
15656;DHT22;7928;43.614;1.456;2024-03-02T00:26:14;9.80;99.90
15656;DHT22;7928;43.614;1.456;2024-03-02T00:28:42;9.80;99.90
15656;DHT22;7928;43.614;1.456;2024-03-02T00:31:12;9.90;99.90
15656;DHT22;7928;43.614;1.456;2024-03-02T00:33:41;9.90;99.90
15656;DHT22;7928;43.614;1.456;2024-03-02T00:36:09;9.90;99.90
15656;DHT22;7928;43.614;1.456;2024-03-02T00:38:44;9.90;99.90
15656;DHT22;7928;43.614;1.456;2024-03-02T00:41:17;9.90;99.90
15656;DHT22;7928;43.614;1.456;2024-03-02T00:43:57;10.00;99.90
15656;DHT22;7928;43.614;1.456;2024-03-02T00:46:24;10.00;99.90
15656;DHT22;7928;43.614;1.456;2024-03-02T00:48:54;10.10;99.90
15656;DHT22;7928;43.614;1.456;2024-03-02T00:51:21;10.10;99.90
15656;DHT22;7928;43.614;1.456;2024-03-02T00:53:49;10.10;99.90
15656;DHT22;7928;43.614;1.456;2024-03-02T00:56:17;10.20;99.90
15656;DHT22;7928;43.614;1.456;2024-03-02T00:58:44;10.20;99.90
15656;DHT22;7928;43.614;1.456;2024-03-02T01:01:11;10.30;99.90
15656;DHT22;7928;43.614;1.456;2024-03-02T01:03:39;10.30;99.90
15656;DHT22;7928;43.614;1.456;2024-03-02T01:06:07;10.40;99.90
15656;DHT22;7928;43.614;1.456;2024-03-02T01:08:34;10.40;99.90
15656;DHT22;7928;43.614;1.456;2024-03-02T01:11:01;10.50;99.90
15656;DHT22;7928;43.614;1.456;2024-03-02T01:13:30;10.50;99.90
15656;DHT22;7928;43.614;1.456;2024-03-02T01:15:57;10.50;99.90
15656;DHT22;7928;43.614;1.456;2024-03-02T01:18:25;10.50;99.90
15656;DHT22;7928;43.614;1.456;2024-03-02T01:20:52;10.50;99.90
15656;DHT22;7928;43.614;1.456;2024-03-02T01:23:21;10.50;99.90
15656;DHT22;7928;43.614;1.456;2024-03-02T01:25:49;10.50;99.90
15656;DHT22;7928;43.614;1.456;2024-03-02T01:28:16;10.50;99.90
15656;DHT22;7928;43.614;1.456;2024-03-02T01:30:45;10.50;99.90
15656;DHT22;7928;43.614;1.456;2024-03-02T01:33:12;10.50;99.90
15656;DHT22;7928;43.614;1.456;2024-03-02T01:35:39;10.50;99.90
15656;DHT22;7928;43.614;1.456;2024-03-02T01:38:06;10.50;99.90
15656;DHT22;7928;43.614;1.456;2024-03-02T01:40:34;10.50;99.90
15656;DHT22;7928;43.614;1.456;2024-03-02T01:43:01;10.60;99.90
15656;DHT22;7928;43.614;1.456;2024-03-02T01:45:28;10.60;99.90
15656;DHT22;7928;43.614;1.456;2024-03-02T01:47:55;10.60;99.90
15656;DHT22;7928;43.614;1.456;2024-03-02T01:50:26;10.60;99.90
15656;DHT22;7928;43.614;1.456;2024-03-02T01:52:54;10.60;99.90
15656;DHT22;7928;43.614;1.456;2024-03-02T01:55:21;10.50;99.90
15656;DHT22;7928;43.614;1.456;2024-03-02T01:57:49;10.50;99.90
15656;DHT22;7928;43.614;1.456;2024-03-02T02:00:16;10.50;99.90
15656;DHT22;7928;43.614;1.456;2024-03-02T02:02:44;10.40;99.90
15656;DHT22;7928;43.614;1.456;2024-03-02T02:05:12;10.30;99.90
15656;DHT22;7928;43.614;1.456;2024-03-02T02:07:40;10.30;99.90
15656;DHT22;7928;43.614;1.456;2024-03-02T02:10:08;10.20;99.90
15656;DHT22;7928;43.614;1.456;2024-03-02T02:12:36;10.10;99.90
15656;DHT22;7928;43.614;1.456;2024-03-02T02:15:03;10.10;99.90
15656;DHT22;7928;43.614;1.456;2024-03-02T02:17:31;10.10;99.90
15656;DHT22;7928;43.614;1.456;2024-03-02T02:19:58;10.00;99.90
15656;DHT22;7928;43.614;1.456;2024-03-02T02:22:26;10.00;99.90
15656;DHT22;7928;43.614;1.456;2024-03-02T02:24:53;10.00;99.90
15656;DHT22;7928;43.614;1.456;2024-03-02T02:27:20;10.00;99.90
15656;DHT22;7928;43.614;1.456;2024-03-02T02:29:47;10.00;99.90
15656;DHT22;7928;43.614;1.456;2024-03-02T02:32:14;10.00;99.90
15656;DHT22;7928;43.614;1.456;2024-03-02T02:34:41;10.00;99.90
15656;DHT22;7928;43.614;1.456;2024-03-02T02:37:08;10.10;99.90
15656;DHT22;7928;43.614;1.456;2024-03-02T02:39:36;10.10;99.90
15656;DHT22;7928;43.614;1.456;2024-03-02T02:42:04;10.10;99.90
15656;DHT22;7928;43.614;1.456;2024-03-02T02:44:31;10.10;99.90
15656;DHT22;7928;43.614;1.456;2024-03-02T02:46:58;10.10;99.90
15656;DHT22;7928;43.614;1.456;2024-03-02T02:49:25;10.10;99.90
15656;DHT22;7928;43.614;1.456;2024-03-02T02:51:52;10.10;99.90
15656;DHT22;7928;43.614;1.456;2024-03-02T02:54:19;10.00;99.90
15656;DHT22;7928;43.614;1.456;2024-03-02T02:56:47;10.00;99.90
15656;DHT22;7928;43.614;1.456;2024-03-02T02:59:15;9.90;99.90
15656;DHT22;7928;43.614;1.456;2024-03-02T03:01:42;9.90;99.90
15656;DHT22;7928;43.614;1.456;2024-03-02T03:04:09;9.90;99.90
15656;DHT22;7928;43.614;1.456;2024-03-02T03:06:36;9.80;99.90
15656;DHT22;7928;43.614;1.456;2024-03-02T03:09:03;9.70;99.90
15656;DHT22;7928;43.614;1.456;2024-03-02T03:11:30;9.70;99.90
15656;DHT22;7928;43.614;1.456;2024-03-02T03:13:59;9.60;99.90
15656;DHT22;7928;43.614;1.456;2024-03-02T03:16:27;9.50;99.90
15656;DHT22;7928;43.614;1.456;2024-03-02T03:18:54;9.40;99.90
15656;DHT22;7928;43.614;1.456;2024-03-02T03:21:21;9.40;1.00
15656;DHT22;7928;43.614;1.456;2024-03-02T03:23:48;9.30;1.00
15656;DHT22;7928;43.614;1.456;2024-03-02T03:26:15;9.30;1.00
15656;DHT22;7928;43.614;1.456;2024-03-02T03:28:42;9.30;1.00
15656;DHT22;7928;43.614;1.456;2024-03-02T03:31:10;9.20;1.00
15656;DHT22;7928;43.614;1.456;2024-03-02T03:33:38;9.20;1.00
15656;DHT22;7928;43.614;1.456;2024-03-02T03:36:05;9.20;1.00
15656;DHT22;7928;43.614;1.456;2024-03-02T03:38:32;9.20;1.00
15656;DHT22;7928;43.614;1.456;2024-03-02T03:40:59;9.20;1.00
15656;DHT22;7928;43.614;1.456;2024-03-02T03:43:26;9.20;1.00
15656;DHT22;7928;43.614;1.456;2024-03-02T03:45:53;9.20;1.00
15656;DHT22;7928;43.614;1.456;2024-03-02T03:48:21;9.10;1.00
15656;DHT22;7928;43.614;1.456;2024-03-02T03:50:48;9.10;1.00
15656;DHT22;7928;43.614;1.456;2024-03-02T03:53:15;9.10;1.00
15656;DHT22;7928;43.614;1.456;2024-03-02T03:55:42;9.10;1.00
15656;DHT22;7928;43.614;1.456;2024-03-02T03:58:12;9.10;1.00
15656;DHT22;7928;43.614;1.456;2024-03-02T04:00:40;9.20;1.00
15656;DHT22;7928;43.614;1.456;2024-03-02T04:03:06;9.10;1.00
15656;DHT22;7928;43.614;1.456;2024-03-02T04:05:35;9.10;1.00
15656;DHT22;7928;43.614;1.456;2024-03-02T04:08:02;9.00;1.00
15656;DHT22;7928;43.614;1.456;2024-03-02T04:10:29;9.00;1.00
15656;DHT22;7928;43.614;1.456;2024-03-02T04:12:56;9.00;1.00
15656;DHT22;7928;43.614;1.456;2024-03-02T04:15:23;9.00;1.00
15656;DHT22;7928;43.614;1.456;2024-03-02T04:17:50;8.90;1.00
15656;DHT22;7928;43.614;1.456;2024-03-02T04:20:17;9.00;1.00
15656;DHT22;7928;43.614;1.456;2024-03-02T04:22:45;8.90;1.00
15656;DHT22;7928;43.614;1.456;2024-03-02T04:25:13;8.90;1.00
15656;DHT22;7928;43.614;1.456;2024-03-02T04:27:40;8.90;1.00
15656;DHT22;7928;43.614;1.456;2024-03-02T04:30:08;8.90;1.00
15656;DHT22;7928;43.614;1.456;2024-03-02T04:32:35;8.90;1.00
15656;DHT22;7928;43.614;1.456;2024-03-02T04:35:02;8.90;1.00
15656;DHT22;7928;43.614;1.456;2024-03-02T04:37:30;8.90;1.00
15656;DHT22;7928;43.614;1.456;2024-03-02T04:39:58;8.80;1.00
15656;DHT22;7928;43.614;1.456;2024-03-02T04:42:25;8.80;1.00
15656;DHT22;7928;43.614;1.456;2024-03-02T04:44:52;8.80;1.00
15656;DHT22;7928;43.614;1.456;2024-03-02T04:47:19;8.80;1.00
15656;DHT22;7928;43.614;1.456;2024-03-02T04:49:46;8.90;1.00
15656;DHT22;7928;43.614;1.456;2024-03-02T04:52:13;8.90;1.00
15656;DHT22;7928;43.614;1.456;2024-03-02T04:54:40;8.90;1.00
15656;DHT22;7928;43.614;1.456;2024-03-02T04:57:23;8.90;99.90
15656;DHT22;7928;43.614;1.456;2024-03-02T04:59:50;8.90;99.90
15656;DHT22;7928;43.614;1.456;2024-03-02T05:02:17;8.90;99.90
15656;DHT22;7928;43.614;1.456;2024-03-02T05:04:43;8.80;99.90
15656;DHT22;7928;43.614;1.456;2024-03-02T05:07:10;8.80;99.90
15656;DHT22;7928;43.614;1.456;2024-03-02T05:09:37;8.80;99.90
15656;DHT22;7928;43.614;1.456;2024-03-02T05:12:05;8.80;99.90
15656;DHT22;7928;43.614;1.456;2024-03-02T05:14:50;8.80;99.90
15656;DHT22;7928;43.614;1.456;2024-03-02T05:17:17;8.80;99.90
15656;DHT22;7928;43.614;1.456;2024-03-02T05:19:44;8.70;99.90
15656;DHT22;7928;43.614;1.456;2024-03-02T05:22:11;8.70;99.90
15656;DHT22;7928;43.614;1.456;2024-03-02T05:24:38;8.80;99.90
15656;DHT22;7928;43.614;1.456;2024-03-02T05:27:05;8.80;99.90
15656;DHT22;7928;43.614;1.456;2024-03-02T05:29:33;8.80;99.90
15656;DHT22;7928;43.614;1.456;2024-03-02T05:32:01;8.80;99.90
15656;DHT22;7928;43.614;1.456;2024-03-02T05:34:28;8.90;99.90
15656;DHT22;7928;43.614;1.456;2024-03-02T05:36:56;8.90;99.90
15656;DHT22;7928;43.614;1.456;2024-03-02T05:39:24;8.90;99.90
15656;DHT22;7928;43.614;1.456;2024-03-02T05:41:51;8.80;99.90
15656;DHT22;7928;43.614;1.456;2024-03-02T05:44:18;8.80;99.90
15656;DHT22;7928;43.614;1.456;2024-03-02T05:46:45;8.80;99.90
15656;DHT22;7928;43.614;1.456;2024-03-02T05:49:13;8.80;99.90
15656;DHT22;7928;43.614;1.456;2024-03-02T05:51:40;8.80;99.90
15656;DHT22;7928;43.614;1.456;2024-03-02T05:54:08;8.80;99.90
15656;DHT22;7928;43.614;1.456;2024-03-02T05:56:35;8.70;99.90
15656;DHT22;7928;43.614;1.456;2024-03-02T05:59:02;8.80;99.90
15656;DHT22;7928;43.614;1.456;2024-03-02T06:01:38;8.80;99.90
15656;DHT22;7928;43.614;1.456;2024-03-02T06:04:05;8.80;99.90
15656;DHT22;7928;43.614;1.456;2024-03-02T06:06:34;8.80;99.90
15656;DHT22;7928;43.614;1.456;2024-03-02T06:09:01;8.80;99.90
15656;DHT22;7928;43.614;1.456;2024-03-02T06:11:31;8.80;99.90
15656;DHT22;7928;43.614;1.456;2024-03-02T06:13:58;8.70;99.90
15656;DHT22;7928;43.614;1.456;2024-03-02T06:16:25;8.70;99.90
15656;DHT22;7928;43.614;1.456;2024-03-02T06:18:52;8.70;99.90
15656;DHT22;7928;43.614;1.456;2024-03-02T06:21:19;8.70;99.90
15656;DHT22;7928;43.614;1.456;2024-03-02T06:23:48;8.70;99.90
15656;DHT22;7928;43.614;1.456;2024-03-02T06:26:15;8.70;99.90
15656;DHT22;7928;43.614;1.456;2024-03-02T06:28:41;8.70;99.90
15656;DHT22;7928;43.614;1.456;2024-03-02T06:31:09;8.70;99.90
15656;DHT22;7928;43.614;1.456;2024-03-02T06:33:36;8.70;99.90
15656;DHT22;7928;43.614;1.456;2024-03-02T06:36:04;8.70;99.90
15656;DHT22;7928;43.614;1.456;2024-03-02T06:38:34;8.70;99.90
15656;DHT22;7928;43.614;1.456;2024-03-02T06:41:02;8.70;99.90
15656;DHT22;7928;43.614;1.456;2024-03-02T06:43:29;8.60;99.90
15656;DHT22;7928;43.614;1.456;2024-03-02T06:45:56;8.70;99.90
15656;DHT22;7928;43.614;1.456;2024-03-02T06:48:23;8.70;99.90
15656;DHT22;7928;43.614;1.456;2024-03-02T06:50:50;8.60;99.90
15656;DHT22;7928;43.614;1.456;2024-03-02T06:53:18;8.60;99.90
15656;DHT22;7928;43.614;1.456;2024-03-02T06:55:45;8.60;99.90
15656;DHT22;7928;43.614;1.456;2024-03-02T06:58:14;8.60;99.90
15656;DHT22;7928;43.614;1.456;2024-03-02T07:00:42;8.70;99.90
15656;DHT22;7928;43.614;1.456;2024-03-02T07:03:09;8.70;99.90
15656;DHT22;7928;43.614;1.456;2024-03-02T07:05:35;8.60;99.90
15656;DHT22;7928;43.614;1.456;2024-03-02T07:08:03;8.70;99.90
15656;DHT22;7928;43.614;1.456;2024-03-02T07:10:31;8.70;99.90
15656;DHT22;7928;43.614;1.456;2024-03-02T07:12:57;8.80;99.90
15656;DHT22;7928;43.614;1.456;2024-03-02T07:15:26;8.80;99.90
15656;DHT22;7928;43.614;1.456;2024-03-02T07:18:10;8.70;99.90
15656;DHT22;7928;43.614;1.456;2024-03-02T07:20:37;8.80;99.90
15656;DHT22;7928;43.614;1.456;2024-03-02T07:23:05;8.90;99.90
15656;DHT22;7928;43.614;1.456;2024-03-02T07:25:32;8.90;99.90
15656;DHT22;7928;43.614;1.456;2024-03-02T07:27:59;8.80;99.90
15656;DHT22;7928;43.614;1.456;2024-03-02T07:30:28;8.80;99.90
15656;DHT22;7928;43.614;1.456;2024-03-02T07:32:55;8.90;99.90
15656;DHT22;7928;43.614;1.456;2024-03-02T07:35:21;9.10;99.90
15656;DHT22;7928;43.614;1.456;2024-03-02T07:37:52;9.10;99.90
15656;DHT22;7928;43.614;1.456;2024-03-02T07:40:19;9.10;99.90
15656;DHT22;7928;43.614;1.456;2024-03-02T07:42:46;9.10;99.90
15656;DHT22;7928;43.614;1.456;2024-03-02T07:45:13;9.10;99.90
15656;DHT22;7928;43.614;1.456;2024-03-02T07:47:42;9.10;99.90
15656;DHT22;7928;43.614;1.456;2024-03-02T07:50:09;9.10;99.90
15656;DHT22;7928;43.614;1.456;2024-03-02T07:52:36;9.10;99.90
15656;DHT22;7928;43.614;1.456;2024-03-02T07:55:04;9.20;99.90
15656;DHT22;7928;43.614;1.456;2024-03-02T07:57:31;9.20;99.90
15656;DHT22;7928;43.614;1.456;2024-03-02T07:59:59;9.20;99.90
15656;DHT22;7928;43.614;1.456;2024-03-02T08:02:26;9.20;99.90
15656;DHT22;7928;43.614;1.456;2024-03-02T08:04:54;9.10;99.90
15656;DHT22;7928;43.614;1.456;2024-03-02T08:07:21;9.00;99.90
15656;DHT22;7928;43.614;1.456;2024-03-02T08:09:48;9.10;99.90
15656;DHT22;7928;43.614;1.456;2024-03-02T08:12:15;9.20;99.90
15656;DHT22;7928;43.614;1.456;2024-03-02T08:14:44;9.30;99.90
15656;DHT22;7928;43.614;1.456;2024-03-02T08:17:11;9.40;99.90
15656;DHT22;7928;43.614;1.456;2024-03-02T08:19:38;9.60;99.90
15656;DHT22;7928;43.614;1.456;2024-03-02T08:22:06;9.90;99.90
15656;DHT22;7928;43.614;1.456;2024-03-02T08:24:33;10.00;99.90
15656;DHT22;7928;43.614;1.456;2024-03-02T08:27:01;10.10;99.90
15656;DHT22;7928;43.614;1.456;2024-03-02T08:29:28;10.20;99.90
15656;DHT22;7928;43.614;1.456;2024-03-02T08:31:55;10.40;99.90
15656;DHT22;7928;43.614;1.456;2024-03-02T08:34:22;10.40;99.90
15656;DHT22;7928;43.614;1.456;2024-03-02T08:36:49;10.40;99.90
15656;DHT22;7928;43.614;1.456;2024-03-02T08:39:18;10.60;99.90
15656;DHT22;7928;43.614;1.456;2024-03-02T08:41:46;10.60;99.90
15656;DHT22;7928;43.614;1.456;2024-03-02T08:44:14;10.50;99.90
15656;DHT22;7928;43.614;1.456;2024-03-02T08:46:41;10.50;99.90
15656;DHT22;7928;43.614;1.456;2024-03-02T08:49:11;10.50;99.90
15656;DHT22;7928;43.614;1.456;2024-03-02T08:51:38;10.70;99.90
15656;DHT22;7928;43.614;1.456;2024-03-02T08:54:05;10.80;99.90
15656;DHT22;7928;43.614;1.456;2024-03-02T08:56:34;10.90;99.90
15656;DHT22;7928;43.614;1.456;2024-03-02T08:59:03;11.00;99.90
15656;DHT22;7928;43.614;1.456;2024-03-02T09:01:30;11.10;99.90
15656;DHT22;7928;43.614;1.456;2024-03-02T09:03:57;11.20;99.90
15656;DHT22;7928;43.614;1.456;2024-03-02T09:06:24;11.40;99.90
15656;DHT22;7928;43.614;1.456;2024-03-02T09:08:51;11.50;99.90
15656;DHT22;7928;43.614;1.456;2024-03-02T09:11:18;11.60;99.90
15656;DHT22;7928;43.614;1.456;2024-03-02T09:13:47;11.70;99.90
15656;DHT22;7928;43.614;1.456;2024-03-02T09:16:14;11.80;99.90
15656;DHT22;7928;43.614;1.456;2024-03-02T09:18:41;12.00;99.90
15656;DHT22;7928;43.614;1.456;2024-03-02T09:21:08;12.10;99.90
15656;DHT22;7928;43.614;1.456;2024-03-02T09:23:35;11.90;99.90
15656;DHT22;7928;43.614;1.456;2024-03-02T09:26:03;11.90;99.90
15656;DHT22;7928;43.614;1.456;2024-03-02T09:28:30;11.90;99.90
15656;DHT22;7928;43.614;1.456;2024-03-02T09:31:00;11.90;99.90
15656;DHT22;7928;43.614;1.456;2024-03-02T09:33:28;12.10;99.90
15656;DHT22;7928;43.614;1.456;2024-03-02T09:35:55;12.40;99.90
15656;DHT22;7928;43.614;1.456;2024-03-02T09:38:22;12.50;99.90
15656;DHT22;7928;43.614;1.456;2024-03-02T09:40:49;12.50;99.90
15656;DHT22;7928;43.614;1.456;2024-03-02T09:43:16;12.40;99.90
15656;DHT22;7928;43.614;1.456;2024-03-02T09:45:43;12.00;99.90
15656;DHT22;7928;43.614;1.456;2024-03-02T09:48:12;11.90;99.90
15656;DHT22;7928;43.614;1.456;2024-03-02T09:50:39;11.80;99.90
15656;DHT22;7928;43.614;1.456;2024-03-02T09:53:07;11.70;99.90
15656;DHT22;7928;43.614;1.456;2024-03-02T09:55:35;11.80;99.90
15656;DHT22;7928;43.614;1.456;2024-03-02T09:58:03;11.70;99.90
15656;DHT22;7928;43.614;1.456;2024-03-02T10:00:30;11.60;99.90
15656;DHT22;7928;43.614;1.456;2024-03-02T10:02:57;11.60;99.90
15656;DHT22;7928;43.614;1.456;2024-03-02T10:05:27;11.60;99.90
15656;DHT22;7928;43.614;1.456;2024-03-02T10:08:00;11.50;99.90
15656;DHT22;7928;43.614;1.456;2024-03-02T10:10:35;11.60;99.90
15656;DHT22;7928;43.614;1.456;2024-03-02T10:13:06;11.60;99.90
15656;DHT22;7928;43.614;1.456;2024-03-02T10:15:34;11.50;99.90
15656;DHT22;7928;43.614;1.456;2024-03-02T10:18:03;11.60;99.90
15656;DHT22;7928;43.614;1.456;2024-03-02T10:20:31;11.80;99.90
15656;DHT22;7928;43.614;1.456;2024-03-02T10:23:10;11.80;99.90
15656;DHT22;7928;43.614;1.456;2024-03-02T10:25:37;11.90;99.90
15656;DHT22;7928;43.614;1.456;2024-03-02T10:28:05;12.10;99.90
15656;DHT22;7928;43.614;1.456;2024-03-02T10:30:32;12.20;99.90
15656;DHT22;7928;43.614;1.456;2024-03-02T10:33:00;12.40;99.90
15656;DHT22;7928;43.614;1.456;2024-03-02T10:35:28;12.50;99.90
15656;DHT22;7928;43.614;1.456;2024-03-02T10:37:58;12.50;99.90
15656;DHT22;7928;43.614;1.456;2024-03-02T10:40:26;12.60;99.90
15656;DHT22;7928;43.614;1.456;2024-03-02T10:42:53;12.70;99.90
15656;DHT22;7928;43.614;1.456;2024-03-02T10:45:21;12.90;99.90
15656;DHT22;7928;43.614;1.456;2024-03-02T10:47:49;12.90;99.90
15656;DHT22;7928;43.614;1.456;2024-03-02T10:50:17;12.90;99.90
15656;DHT22;7928;43.614;1.456;2024-03-02T10:52:45;13.00;99.90
15656;DHT22;7928;43.614;1.456;2024-03-02T10:55:13;13.10;99.90
15656;DHT22;7928;43.614;1.456;2024-03-02T10:57:51;13.20;99.90
15656;DHT22;7928;43.614;1.456;2024-03-02T11:00:19;13.30;99.90
15656;DHT22;7928;43.614;1.456;2024-03-02T11:02:51;13.50;99.90
15656;DHT22;7928;43.614;1.456;2024-03-02T11:05:26;13.50;99.90
15656;DHT22;7928;43.614;1.456;2024-03-02T11:07:57;13.60;99.90
15656;DHT22;7928;43.614;1.456;2024-03-02T11:10:31;13.60;99.90
15656;DHT22;7928;43.614;1.456;2024-03-02T11:13:03;13.80;99.90
15656;DHT22;7928;43.614;1.456;2024-03-02T11:15:31;13.90;99.90
15656;DHT22;7928;43.614;1.456;2024-03-02T11:18:00;14.00;99.90
15656;DHT22;7928;43.614;1.456;2024-03-02T11:20:28;14.10;99.90
15656;DHT22;7928;43.614;1.456;2024-03-02T11:22:56;14.20;99.90
15656;DHT22;7928;43.614;1.456;2024-03-02T11:25:23;14.00;99.90
15656;DHT22;7928;43.614;1.456;2024-03-02T11:28:03;14.20;99.90
15656;DHT22;7928;43.614;1.456;2024-03-02T11:30:49;14.10;99.90
15656;DHT22;7928;43.614;1.456;2024-03-02T11:33:23;14.20;99.90
15656;DHT22;7928;43.614;1.456;2024-03-02T11:35:53;14.10;99.90
15656;DHT22;7928;43.614;1.456;2024-03-02T11:38:20;14.30;99.90
15656;DHT22;7928;43.614;1.456;2024-03-02T11:40:47;14.20;99.90
15656;DHT22;7928;43.614;1.456;2024-03-02T11:43:16;14.20;99.90
15656;DHT22;7928;43.614;1.456;2024-03-02T11:45:43;14.30;99.90
15656;DHT22;7928;43.614;1.456;2024-03-02T11:48:12;14.40;99.90
15656;DHT22;7928;43.614;1.456;2024-03-02T11:50:42;14.40;99.90
15656;DHT22;7928;43.614;1.456;2024-03-02T11:53:10;14.60;99.90
15656;DHT22;7928;43.614;1.456;2024-03-02T11:55:40;14.80;99.90
15656;DHT22;7928;43.614;1.456;2024-03-02T11:58:09;15.00;99.90
15656;DHT22;7928;43.614;1.456;2024-03-02T12:00:37;15.10;99.90
15656;DHT22;7928;43.614;1.456;2024-03-02T12:03:05;15.30;99.90
15656;DHT22;7928;43.614;1.456;2024-03-02T12:05:34;15.50;99.90
15656;DHT22;7928;43.614;1.456;2024-03-02T12:08:03;15.60;99.90
15656;DHT22;7928;43.614;1.456;2024-03-02T12:10:32;15.70;99.90
15656;DHT22;7928;43.614;1.456;2024-03-02T12:13:00;15.70;99.90
15656;DHT22;7928;43.614;1.456;2024-03-02T12:15:28;16.00;99.90
15656;DHT22;7928;43.614;1.456;2024-03-02T12:17:57;16.50;99.90
15656;DHT22;7928;43.614;1.456;2024-03-02T12:20:26;16.40;99.90
15656;DHT22;7928;43.614;1.456;2024-03-02T12:22:55;16.40;99.90
15656;DHT22;7928;43.614;1.456;2024-03-02T12:25:23;16.50;99.90
15656;DHT22;7928;43.614;1.456;2024-03-02T12:27:53;16.60;99.90
15656;DHT22;7928;43.614;1.456;2024-03-02T12:30:21;16.30;99.90
15656;DHT22;7928;43.614;1.456;2024-03-02T12:32:48;16.20;99.90
15656;DHT22;7928;43.614;1.456;2024-03-02T12:35:18;16.00;99.90
15656;DHT22;7928;43.614;1.456;2024-03-02T12:37:46;16.00;99.90
15656;DHT22;7928;43.614;1.456;2024-03-02T12:40:13;15.90;99.90
15656;DHT22;7928;43.614;1.456;2024-03-02T12:42:43;15.80;99.90
15656;DHT22;7928;43.614;1.456;2024-03-02T12:45:10;15.90;99.90
15656;DHT22;7928;43.614;1.456;2024-03-02T12:47:38;16.10;99.90
15656;DHT22;7928;43.614;1.456;2024-03-02T12:50:06;16.50;99.90
15656;DHT22;7928;43.614;1.456;2024-03-02T12:52:35;16.80;99.90
15656;DHT22;7928;43.614;1.456;2024-03-02T12:55:04;17.30;99.90
15656;DHT22;7928;43.614;1.456;2024-03-02T12:57:33;17.60;99.90
15656;DHT22;7928;43.614;1.456;2024-03-02T13:00:00;18.20;99.90
15656;DHT22;7928;43.614;1.456;2024-03-02T13:02:31;18.30;99.90
15656;DHT22;7928;43.614;1.456;2024-03-02T13:04:58;18.30;99.90
15656;DHT22;7928;43.614;1.456;2024-03-02T13:07:26;18.80;99.90
15656;DHT22;7928;43.614;1.456;2024-03-02T13:09:55;19.40;99.90
15656;DHT22;7928;43.614;1.456;2024-03-02T13:12:24;19.40;99.90
15656;DHT22;7928;43.614;1.456;2024-03-02T13:14:52;19.60;99.90
15656;DHT22;7928;43.614;1.456;2024-03-02T13:17:19;19.30;99.90
15656;DHT22;7928;43.614;1.456;2024-03-02T13:19:53;18.70;99.90
15656;DHT22;7928;43.614;1.456;2024-03-02T13:22:20;19.10;99.90
15656;DHT22;7928;43.614;1.456;2024-03-02T13:24:48;19.20;99.90
15656;DHT22;7928;43.614;1.456;2024-03-02T13:27:16;19.90;99.90
15656;DHT22;7928;43.614;1.456;2024-03-02T13:29:45;19.50;99.90
15656;DHT22;7928;43.614;1.456;2024-03-02T13:32:13;19.20;99.90
15656;DHT22;7928;43.614;1.456;2024-03-02T13:34:40;18.60;99.90
15656;DHT22;7928;43.614;1.456;2024-03-02T13:37:07;18.40;99.90
15656;DHT22;7928;43.614;1.456;2024-03-02T13:39:35;17.90;99.90
15656;DHT22;7928;43.614;1.456;2024-03-02T13:42:07;17.80;99.90
15656;DHT22;7928;43.614;1.456;2024-03-02T13:44:35;17.40;99.90
15656;DHT22;7928;43.614;1.456;2024-03-02T13:47:03;17.10;99.90
15656;DHT22;7928;43.614;1.456;2024-03-02T13:49:31;16.80;99.90
15656;DHT22;7928;43.614;1.456;2024-03-02T13:52:02;16.70;99.90
15656;DHT22;7928;43.614;1.456;2024-03-02T13:54:37;16.50;99.90
15656;DHT22;7928;43.614;1.456;2024-03-02T13:57:05;16.30;99.90
15656;DHT22;7928;43.614;1.456;2024-03-02T13:59:32;16.10;99.90
15656;DHT22;7928;43.614;1.456;2024-03-02T14:02:01;15.80;99.90
15656;DHT22;7928;43.614;1.456;2024-03-02T14:04:30;15.70;99.90
15656;DHT22;7928;43.614;1.456;2024-03-02T14:06:57;15.50;99.90
15656;DHT22;7928;43.614;1.456;2024-03-02T14:09:24;15.50;99.90
15656;DHT22;7928;43.614;1.456;2024-03-02T14:11:51;15.60;99.90
15656;DHT22;7928;43.614;1.456;2024-03-02T14:14:18;15.50;99.90
15656;DHT22;7928;43.614;1.456;2024-03-02T14:16:45;15.60;99.90
15656;DHT22;7928;43.614;1.456;2024-03-02T14:19:13;15.50;99.90
15656;DHT22;7928;43.614;1.456;2024-03-02T14:21:41;15.30;99.90
15656;DHT22;7928;43.614;1.456;2024-03-02T14:24:08;15.20;99.90
15656;DHT22;7928;43.614;1.456;2024-03-02T14:26:35;15.20;99.90
15656;DHT22;7928;43.614;1.456;2024-03-02T14:29:03;15.20;99.90
15656;DHT22;7928;43.614;1.456;2024-03-02T14:31:30;15.20;99.90
15656;DHT22;7928;43.614;1.456;2024-03-02T14:33:57;15.20;99.90
15656;DHT22;7928;43.614;1.456;2024-03-02T14:36:26;15.20;99.90
15656;DHT22;7928;43.614;1.456;2024-03-02T14:38:53;15.10;99.90
15656;DHT22;7928;43.614;1.456;2024-03-02T14:41:21;15.10;99.90
15656;DHT22;7928;43.614;1.456;2024-03-02T14:43:49;15.10;99.90
15656;DHT22;7928;43.614;1.456;2024-03-02T14:46:17;15.10;99.90
15656;DHT22;7928;43.614;1.456;2024-03-02T14:48:46;15.10;99.90
15656;DHT22;7928;43.614;1.456;2024-03-02T14:51:13;15.10;99.90
15656;DHT22;7928;43.614;1.456;2024-03-02T14:53:42;15.20;99.90
15656;DHT22;7928;43.614;1.456;2024-03-02T14:56:09;15.20;99.90
15656;DHT22;7928;43.614;1.456;2024-03-02T14:58:38;15.20;99.90
15656;DHT22;7928;43.614;1.456;2024-03-02T15:01:05;15.10;99.90
15656;DHT22;7928;43.614;1.456;2024-03-02T15:03:34;15.00;99.90
15656;DHT22;7928;43.614;1.456;2024-03-02T15:06:02;14.90;99.90
15656;DHT22;7928;43.614;1.456;2024-03-02T15:08:29;14.80;99.90
15656;DHT22;7928;43.614;1.456;2024-03-02T15:10:58;14.80;99.90
15656;DHT22;7928;43.614;1.456;2024-03-02T15:13:26;14.80;99.90
15656;DHT22;7928;43.614;1.456;2024-03-02T15:15:53;14.70;99.90
15656;DHT22;7928;43.614;1.456;2024-03-02T15:18:21;14.70;99.90
15656;DHT22;7928;43.614;1.456;2024-03-02T15:20:48;14.60;99.90
15656;DHT22;7928;43.614;1.456;2024-03-02T15:23:15;14.60;99.90
15656;DHT22;7928;43.614;1.456;2024-03-02T15:25:41;14.60;99.90
15656;DHT22;7928;43.614;1.456;2024-03-02T15:28:09;14.70;99.90
15656;DHT22;7928;43.614;1.456;2024-03-02T15:30:36;14.70;99.90
15656;DHT22;7928;43.614;1.456;2024-03-02T15:33:04;14.70;99.90
15656;DHT22;7928;43.614;1.456;2024-03-02T15:35:31;14.70;99.90
15656;DHT22;7928;43.614;1.456;2024-03-02T15:37:58;14.60;99.90
15656;DHT22;7928;43.614;1.456;2024-03-02T15:40:25;14.50;99.90
15656;DHT22;7928;43.614;1.456;2024-03-02T15:42:54;14.50;99.90
15656;DHT22;7928;43.614;1.456;2024-03-02T15:45:22;14.50;99.90
15656;DHT22;7928;43.614;1.456;2024-03-02T15:47:49;14.50;99.90
15656;DHT22;7928;43.614;1.456;2024-03-02T15:50:16;14.70;99.90
15656;DHT22;7928;43.614;1.456;2024-03-02T15:52:43;14.70;99.90
15656;DHT22;7928;43.614;1.456;2024-03-02T15:55:12;14.60;99.90
15656;DHT22;7928;43.614;1.456;2024-03-02T15:57:39;14.50;99.90
15656;DHT22;7928;43.614;1.456;2024-03-02T16:00:07;14.50;99.90